sensor_id;sensor_type;location;lat;lon;timestamp;temperature;humidity
9925;DHT22;5001;51.674;7.868;2023-05-19T00:01:20;9.10;99.90
9925;DHT22;5001;51.674;7.868;2023-05-19T00:03:51;9.10;99.90
9925;DHT22;5001;51.674;7.868;2023-05-19T00:06:24;9.10;99.90
9925;DHT22;5001;51.674;7.868;2023-05-19T00:08:56;9.00;99.90
9925;DHT22;5001;51.674;7.868;2023-05-19T00:11:24;9.00;99.90
9925;DHT22;5001;51.674;7.868;2023-05-19T00:13:54;9.00;99.90
9925;DHT22;5001;51.674;7.868;2023-05-19T00:16:23;9.00;99.90
9925;DHT22;5001;51.674;7.868;2023-05-19T00:18:50;8.90;99.90
9925;DHT22;5001;51.674;7.868;2023-05-19T00:21:19;8.90;99.90
9925;DHT22;5001;51.674;7.868;2023-05-19T00:23:46;8.90;99.90
9925;DHT22;5001;51.674;7.868;2023-05-19T00:26:14;8.80;99.90
9925;DHT22;5001;51.674;7.868;2023-05-19T00:28:51;8.80;99.90
9925;DHT22;5001;51.674;7.868;2023-05-19T00:31:19;8.80;99.90
9925;DHT22;5001;51.674;7.868;2023-05-19T00:33:46;8.70;99.90
9925;DHT22;5001;51.674;7.868;2023-05-19T00:36:13;8.70;99.90
9925;DHT22;5001;51.674;7.868;2023-05-19T00:38:40;8.70;99.90
9925;DHT22;5001;51.674;7.868;2023-05-19T00:41:07;8.60;99.90
9925;DHT22;5001;51.674;7.868;2023-05-19T00:43:34;8.60;99.90
9925;DHT22;5001;51.674;7.868;2023-05-19T00:46:02;8.60;99.90
9925;DHT22;5001;51.674;7.868;2023-05-19T00:48:29;8.60;99.90
9925;DHT22;5001;51.674;7.868;2023-05-19T00:50:57;8.60;99.90
9925;DHT22;5001;51.674;7.868;2023-05-19T00:53:31;8.50;99.90
9925;DHT22;5001;51.674;7.868;2023-05-19T00:55:59;8.50;99.90
9925;DHT22;5001;51.674;7.868;2023-05-19T00:58:28;8.50;99.90
9925;DHT22;5001;51.674;7.868;2023-05-19T01:00:57;8.40;99.90
9925;DHT22;5001;51.674;7.868;2023-05-19T01:03:34;8.40;99.90
9925;DHT22;5001;51.674;7.868;2023-05-19T01:06:05;8.40;99.90
9925;DHT22;5001;51.674;7.868;2023-05-19T01:08:34;8.30;99.90
9925;DHT22;5001;51.674;7.868;2023-05-19T01:11:03;8.30;99.90
9925;DHT22;5001;51.674;7.868;2023-05-19T01:13:31;8.30;99.90
9925;DHT22;5001;51.674;7.868;2023-05-19T01:18:59;8.20;99.90
9925;DHT22;5001;51.674;7.868;2023-05-19T01:30:25;8.00;99.90
9925;DHT22;5001;51.674;7.868;2023-05-19T01:32:57;8.00;99.90
9925;DHT22;5001;51.674;7.868;2023-05-19T01:35:26;8.00;99.90
9925;DHT22;5001;51.674;7.868;2023-05-19T01:37:56;8.00;99.90
9925;DHT22;5001;51.674;7.868;2023-05-19T01:40:24;7.90;99.90
9925;DHT22;5001;51.674;7.868;2023-05-19T01:42:55;7.90;99.90
9925;DHT22;5001;51.674;7.868;2023-05-19T01:45:25;7.90;99.90
9925;DHT22;5001;51.674;7.868;2023-05-19T01:47:56;7.80;99.90
9925;DHT22;5001;51.674;7.868;2023-05-19T01:50:26;7.80;99.90
9925;DHT22;5001;51.674;7.868;2023-05-19T01:52:53;7.80;99.90
9925;DHT22;5001;51.674;7.868;2023-05-19T01:55:21;7.80;99.90
9925;DHT22;5001;51.674;7.868;2023-05-19T02:00:46;7.70;99.90
9925;DHT22;5001;51.674;7.868;2023-05-19T02:11:45;7.50;99.90
9925;DHT22;5001;51.674;7.868;2023-05-19T02:14:27;7.50;99.90
9925;DHT22;5001;51.674;7.868;2023-05-19T02:16:56;7.50;99.90
9925;DHT22;5001;51.674;7.868;2023-05-19T02:19:31;7.50;99.90
9925;DHT22;5001;51.674;7.868;2023-05-19T02:21:59;7.50;99.90
9925;DHT22;5001;51.674;7.868;2023-05-19T02:24:26;7.40;99.90
9925;DHT22;5001;51.674;7.868;2023-05-19T02:26:53;7.40;99.90
9925;DHT22;5001;51.674;7.868;2023-05-19T02:29:20;7.40;99.90
9925;DHT22;5001;51.674;7.868;2023-05-19T02:31:49;7.30;99.90
9925;DHT22;5001;51.674;7.868;2023-05-19T02:34:17;7.30;99.90
9925;DHT22;5001;51.674;7.868;2023-05-19T02:36:44;7.30;99.90
9925;DHT22;5001;51.674;7.868;2023-05-19T02:39:15;7.30;99.90
9925;DHT22;5001;51.674;7.868;2023-05-19T02:41:42;7.30;99.90
9925;DHT22;5001;51.674;7.868;2023-05-19T02:44:09;7.30;99.90
9925;DHT22;5001;51.674;7.868;2023-05-19T02:46:36;7.20;99.90
9925;DHT22;5001;51.674;7.868;2023-05-19T02:49:03;7.20;99.90
9925;DHT22;5001;51.674;7.868;2023-05-19T02:51:31;7.20;99.90
9925;DHT22;5001;51.674;7.868;2023-05-19T02:53:58;7.20;99.90
9925;DHT22;5001;51.674;7.868;2023-05-19T02:56:25;7.20;99.90
9925;DHT22;5001;51.674;7.868;2023-05-19T02:58:53;7.10;99.90
9925;DHT22;5001;51.674;7.868;2023-05-19T03:01:20;7.10;99.90
9925;DHT22;5001;51.674;7.868;2023-05-19T03:03:52;7.10;99.90
9925;DHT22;5001;51.674;7.868;2023-05-19T03:06:19;7.10;99.90
9925;DHT22;5001;51.674;7.868;2023-05-19T03:08:49;7.00;99.90
9925;DHT22;5001;51.674;7.868;2023-05-19T03:11:17;7.00;99.90
9925;DHT22;5001;51.674;7.868;2023-05-19T03:13:44;6.90;99.90
9925;DHT22;5001;51.674;7.868;2023-05-19T03:16:11;6.90;99.90
9925;DHT22;5001;51.674;7.868;2023-05-19T03:18:38;6.90;99.90
9925;DHT22;5001;51.674;7.868;2023-05-19T03:21:05;6.90;99.90
9925;DHT22;5001;51.674;7.868;2023-05-19T03:23:32;6.80;99.90
9925;DHT22;5001;51.674;7.868;2023-05-19T03:25:59;6.80;99.90
9925;DHT22;5001;51.674;7.868;2023-05-19T03:28:27;6.70;99.90
9925;DHT22;5001;51.674;7.868;2023-05-19T03:30:54;6.70;99.90
9925;DHT22;5001;51.674;7.868;2023-05-19T03:33:25;6.70;99.90
9925;DHT22;5001;51.674;7.868;2023-05-19T03:35:56;6.70;99.90
9925;DHT22;5001;51.674;7.868;2023-05-19T03:38:24;6.60;99.90
9925;DHT22;5001;51.674;7.868;2023-05-19T03:40:56;6.60;99.90
9925;DHT22;5001;51.674;7.868;2023-05-19T03:43:24;6.60;99.90
9925;DHT22;5001;51.674;7.868;2023-05-19T03:45:56;6.60;99.90
9925;DHT22;5001;51.674;7.868;2023-05-19T03:48:42;6.50;99.90
9925;DHT22;5001;51.674;7.868;2023-05-19T03:51:32;6.40;99.90
9925;DHT22;5001;51.674;7.868;2023-05-19T03:54:08;6.40;99.90
9925;DHT22;5001;51.674;7.868;2023-05-19T03:56:38;6.50;99.90
9925;DHT22;5001;51.674;7.868;2023-05-19T03:59:06;6.60;99.90
9925;DHT22;5001;51.674;7.868;2023-05-19T04:01:35;6.70;99.90
9925;DHT22;5001;51.674;7.868;2023-05-19T04:04:02;6.80;99.90
9925;DHT22;5001;51.674;7.868;2023-05-19T04:06:29;6.90;99.90
9925;DHT22;5001;51.674;7.868;2023-05-19T04:08:58;7.00;99.90
9925;DHT22;5001;51.674;7.868;2023-05-19T04:11:25;7.00;99.90
9925;DHT22;5001;51.674;7.868;2023-05-19T04:13:52;7.10;99.90
9925;DHT22;5001;51.674;7.868;2023-05-19T04:16:19;7.20;99.90
9925;DHT22;5001;51.674;7.868;2023-05-19T04:18:47;7.30;99.90
9925;DHT22;5001;51.674;7.868;2023-05-19T04:21:14;7.40;99.90
9925;DHT22;5001;51.674;7.868;2023-05-19T04:23:41;7.50;99.90
9925;DHT22;5001;51.674;7.868;2023-05-19T04:26:08;7.70;99.90
9925;DHT22;5001;51.674;7.868;2023-05-19T04:28:36;8.30;99.90
9925;DHT22;5001;51.674;7.868;2023-05-19T04:31:05;9.00;99.90
9925;DHT22;5001;51.674;7.868;2023-05-19T04:33:37;9.90;99.90
9925;DHT22;5001;51.674;7.868;2023-05-19T04:36:07;10.60;99.90
9925;DHT22;5001;51.674;7.868;2023-05-19T04:38:38;11.10;99.90
9925;DHT22;5001;51.674;7.868;2023-05-19T04:41:08;11.60;99.90
9925;DHT22;5001;51.674;7.868;2023-05-19T04:43:39;12.20;99.90
9925;DHT22;5001;51.674;7.868;2023-05-19T04:46:08;12.70;99.90
9925;DHT22;5001;51.674;7.868;2023-05-19T04:48:40;13.10;99.90
9925;DHT22;5001;51.674;7.868;2023-05-19T04:51:07;13.50;99.90
9925;DHT22;5001;51.674;7.868;2023-05-19T04:53:34;13.90;99.90
9925;DHT22;5001;51.674;7.868;2023-05-19T04:56:04;14.20;99.90
9925;DHT22;5001;51.674;7.868;2023-05-19T04:58:32;14.10;99.90
9925;DHT22;5001;51.674;7.868;2023-05-19T05:00:59;14.50;99.90
9925;DHT22;5001;51.674;7.868;2023-05-19T05:03:27;15.10;99.90
9925;DHT22;5001;51.674;7.868;2023-05-19T05:05:56;15.60;99.90
9925;DHT22;5001;51.674;7.868;2023-05-19T05:08:24;16.10;99.90
9925;DHT22;5001;51.674;7.868;2023-05-19T05:10:53;16.20;99.90
9925;DHT22;5001;51.674;7.868;2023-05-19T05:13:22;16.50;99.90
9925;DHT22;5001;51.674;7.868;2023-05-19T05:15:49;16.90;99.90
9925;DHT22;5001;51.674;7.868;2023-05-19T05:18:21;17.50;99.90
9925;DHT22;5001;51.674;7.868;2023-05-19T05:20:48;18.00;99.90
9925;DHT22;5001;51.674;7.868;2023-05-19T05:23:16;18.40;99.90
9925;DHT22;5001;51.674;7.868;2023-05-19T05:25:45;18.90;99.90
9925;DHT22;5001;51.674;7.868;2023-05-19T05:28:14;19.50;99.90
9925;DHT22;5001;51.674;7.868;2023-05-19T05:30:42;19.40;99.90
9925;DHT22;5001;51.674;7.868;2023-05-19T05:33:12;19.80;99.90
9925;DHT22;5001;51.674;7.868;2023-05-19T05:35:40;20.40;99.90
9925;DHT22;5001;51.674;7.868;2023-05-19T05:38:09;20.50;99.90
9925;DHT22;5001;51.674;7.868;2023-05-19T05:40:38;20.40;99.90
9925;DHT22;5001;51.674;7.868;2023-05-19T05:43:05;19.10;99.90
9925;DHT22;5001;51.674;7.868;2023-05-19T05:45:37;19.70;99.90
9925;DHT22;5001;51.674;7.868;2023-05-19T05:48:06;20.00;99.90
9925;DHT22;5001;51.674;7.868;2023-05-19T05:50:34;20.40;99.90
9925;DHT22;5001;51.674;7.868;2023-05-19T05:53:02;20.30;99.90
9925;DHT22;5001;51.674;7.868;2023-05-19T05:55:29;19.50;99.90
9925;DHT22;5001;51.674;7.868;2023-05-19T05:57:59;19.20;99.90
9925;DHT22;5001;51.674;7.868;2023-05-19T06:00:28;19.10;99.90
9925;DHT22;5001;51.674;7.868;2023-05-19T06:02:55;19.80;99.90
9925;DHT22;5001;51.674;7.868;2023-05-19T06:05:25;21.70;99.90
9925;DHT22;5001;51.674;7.868;2023-05-19T06:07:53;21.50;99.90
9925;DHT22;5001;51.674;7.868;2023-05-19T06:10:24;21.10;99.90
9925;DHT22;5001;51.674;7.868;2023-05-19T06:12:53;21.30;99.90
9925;DHT22;5001;51.674;7.868;2023-05-19T06:15:21;21.50;99.90
9925;DHT22;5001;51.674;7.868;2023-05-19T06:17:53;22.70;99.90
9925;DHT22;5001;51.674;7.868;2023-05-19T06:20:20;23.50;99.90
9925;DHT22;5001;51.674;7.868;2023-05-19T06:22:48;24.00;99.90
9925;DHT22;5001;51.674;7.868;2023-05-19T06:25:17;23.90;99.90
9925;DHT22;5001;51.674;7.868;2023-05-19T06:27:44;22.80;99.90
9925;DHT22;5001;51.674;7.868;2023-05-19T06:30:13;21.20;99.90
9925;DHT22;5001;51.674;7.868;2023-05-19T06:33:03;21.10;99.90
9925;DHT22;5001;51.674;7.868;2023-05-19T06:35:31;21.90;99.90
9925;DHT22;5001;51.674;7.868;2023-05-19T06:37:59;21.20;99.90
9925;DHT22;5001;51.674;7.868;2023-05-19T06:40:26;21.20;99.90
9925;DHT22;5001;51.674;7.868;2023-05-19T06:42:53;22.60;99.90
9925;DHT22;5001;51.674;7.868;2023-05-19T06:45:30;22.60;99.90
9925;DHT22;5001;51.674;7.868;2023-05-19T06:48:00;21.90;99.90
9925;DHT22;5001;51.674;7.868;2023-05-19T06:50:27;22.10;99.90
9925;DHT22;5001;51.674;7.868;2023-05-19T06:52:55;22.60;99.90
9925;DHT22;5001;51.674;7.868;2023-05-19T06:55:23;22.80;99.90
9925;DHT22;5001;51.674;7.868;2023-05-19T06:57:50;24.20;99.90
9925;DHT22;5001;51.674;7.868;2023-05-19T07:00:18;25.30;99.90
9925;DHT22;5001;51.674;7.868;2023-05-19T07:02:51;25.40;99.90
9925;DHT22;5001;51.674;7.868;2023-05-19T07:05:18;23.80;99.90
9925;DHT22;5001;51.674;7.868;2023-05-19T07:07:50;23.10;99.90
9925;DHT22;5001;51.674;7.868;2023-05-19T07:10:21;23.10;99.90
9925;DHT22;5001;51.674;7.868;2023-05-19T07:12:49;23.40;99.90
9925;DHT22;5001;51.674;7.868;2023-05-19T07:15:17;24.30;99.90
9925;DHT22;5001;51.674;7.868;2023-05-19T07:17:44;26.40;99.90
9925;DHT22;5001;51.674;7.868;2023-05-19T07:20:12;26.80;99.90
9925;DHT22;5001;51.674;7.868;2023-05-19T07:22:39;27.60;99.90
9925;DHT22;5001;51.674;7.868;2023-05-19T07:25:07;26.50;99.90
9925;DHT22;5001;51.674;7.868;2023-05-19T07:27:35;26.90;99.90
9925;DHT22;5001;51.674;7.868;2023-05-19T07:30:03;27.30;99.90
9925;DHT22;5001;51.674;7.868;2023-05-19T07:32:30;27.80;99.90
9925;DHT22;5001;51.674;7.868;2023-05-19T07:34:57;27.30;99.90
9925;DHT22;5001;51.674;7.868;2023-05-19T07:37:24;26.20;99.90
9925;DHT22;5001;51.674;7.868;2023-05-19T07:39:52;26.10;99.90
9925;DHT22;5001;51.674;7.868;2023-05-19T07:42:19;24.90;99.90
9925;DHT22;5001;51.674;7.868;2023-05-19T07:44:46;23.50;99.90
9925;DHT22;5001;51.674;7.868;2023-05-19T07:47:13;24.10;99.90
9925;DHT22;5001;51.674;7.868;2023-05-19T07:49:40;24.80;99.90
9925;DHT22;5001;51.674;7.868;2023-05-19T07:52:07;24.60;99.90
9925;DHT22;5001;51.674;7.868;2023-05-19T07:54:34;24.80;99.90
9925;DHT22;5001;51.674;7.868;2023-05-19T07:57:01;24.50;99.90
9925;DHT22;5001;51.674;7.868;2023-05-19T07:59:28;24.90;99.90
9925;DHT22;5001;51.674;7.868;2023-05-19T08:01:55;24.30;99.90
9925;DHT22;5001;51.674;7.868;2023-05-19T08:04:22;25.60;99.90
9925;DHT22;5001;51.674;7.868;2023-05-19T08:06:49;27.50;99.90
9925;DHT22;5001;51.674;7.868;2023-05-19T08:09:18;26.10;99.90
9925;DHT22;5001;51.674;7.868;2023-05-19T08:11:46;25.60;99.90
9925;DHT22;5001;51.674;7.868;2023-05-19T08:14:13;25.40;99.90
9925;DHT22;5001;51.674;7.868;2023-05-19T08:16:40;25.80;99.90
9925;DHT22;5001;51.674;7.868;2023-05-19T08:19:08;26.20;99.90
9925;DHT22;5001;51.674;7.868;2023-05-19T08:21:35;26.60;99.90
9925;DHT22;5001;51.674;7.868;2023-05-19T08:24:03;26.80;99.90
9925;DHT22;5001;51.674;7.868;2023-05-19T08:26:30;26.60;99.90
9925;DHT22;5001;51.674;7.868;2023-05-19T08:28:57;26.60;99.90
9925;DHT22;5001;51.674;7.868;2023-05-19T08:31:24;27.30;99.90
9925;DHT22;5001;51.674;7.868;2023-05-19T08:33:52;26.80;99.90
9925;DHT22;5001;51.674;7.868;2023-05-19T08:36:19;26.60;99.90
9925;DHT22;5001;51.674;7.868;2023-05-19T08:38:47;26.60;99.90
9925;DHT22;5001;51.674;7.868;2023-05-19T08:41:14;26.30;99.90
9925;DHT22;5001;51.674;7.868;2023-05-19T08:43:44;26.10;99.90
9925;DHT22;5001;51.674;7.868;2023-05-19T08:46:12;25.80;99.90
9925;DHT22;5001;51.674;7.868;2023-05-19T08:48:43;26.30;99.90
9925;DHT22;5001;51.674;7.868;2023-05-19T08:54:16;26.10;99.90
9925;DHT22;5001;51.674;7.868;2023-05-19T08:56:44;26.20;99.90
9925;DHT22;5001;51.674;7.868;2023-05-19T08:59:13;26.50;99.90
9925;DHT22;5001;51.674;7.868;2023-05-19T09:01:44;26.70;99.90
9925;DHT22;5001;51.674;7.868;2023-05-19T09:04:12;27.20;99.90
9925;DHT22;5001;51.674;7.868;2023-05-19T09:06:40;26.10;99.90
9925;DHT22;5001;51.674;7.868;2023-05-19T09:09:08;26.80;99.90
9925;DHT22;5001;51.674;7.868;2023-05-19T09:11:35;26.40;99.90
9925;DHT22;5001;51.674;7.868;2023-05-19T09:14:04;26.00;99.90
9925;DHT22;5001;51.674;7.868;2023-05-19T09:16:31;25.20;99.90
9925;DHT22;5001;51.674;7.868;2023-05-19T09:19:00;26.00;99.90
9925;DHT22;5001;51.674;7.868;2023-05-19T09:21:28;24.90;99.90
9925;DHT22;5001;51.674;7.868;2023-05-19T09:23:57;24.70;99.90
9925;DHT22;5001;51.674;7.868;2023-05-19T09:26:35;26.00;99.90
9925;DHT22;5001;51.674;7.868;2023-05-19T09:29:18;24.90;99.90
9925;DHT22;5001;51.674;7.868;2023-05-19T09:34:17;25.20;99.90
9925;DHT22;5001;51.674;7.868;2023-05-19T09:36:46;24.50;99.90
9925;DHT22;5001;51.674;7.868;2023-05-19T09:39:16;25.50;99.90
9925;DHT22;5001;51.674;7.868;2023-05-19T09:41:44;26.90;99.90
9925;DHT22;5001;51.674;7.868;2023-05-19T09:44:23;27.00;99.90
9925;DHT22;5001;51.674;7.868;2023-05-19T09:46:55;26.90;99.90
9925;DHT22;5001;51.674;7.868;2023-05-19T09:49:25;27.40;99.90
9925;DHT22;5001;51.674;7.868;2023-05-19T09:51:56;28.60;99.90
9925;DHT22;5001;51.674;7.868;2023-05-19T09:54:24;27.20;99.90
9925;DHT22;5001;51.674;7.868;2023-05-19T09:56:58;25.60;99.90
9925;DHT22;5001;51.674;7.868;2023-05-19T09:59:27;25.90;99.90
9925;DHT22;5001;51.674;7.868;2023-05-19T10:01:59;23.50;99.90
9925;DHT22;5001;51.674;7.868;2023-05-19T10:04:28;24.20;99.90
9925;DHT22;5001;51.674;7.868;2023-05-19T10:06:57;23.60;99.90
9925;DHT22;5001;51.674;7.868;2023-05-19T10:09:28;22.70;99.90
9925;DHT22;5001;51.674;7.868;2023-05-19T10:11:56;21.90;99.90
9925;DHT22;5001;51.674;7.868;2023-05-19T10:14:25;23.80;99.90
9925;DHT22;5001;51.674;7.868;2023-05-19T10:16:57;25.20;99.90
9925;DHT22;5001;51.674;7.868;2023-05-19T10:19:28;25.20;99.90
9925;DHT22;5001;51.674;7.868;2023-05-19T10:21:55;25.20;99.90
9925;DHT22;5001;51.674;7.868;2023-05-19T10:24:22;24.30;99.90
9925;DHT22;5001;51.674;7.868;2023-05-19T10:27:10;24.10;99.90
9925;DHT22;5001;51.674;7.868;2023-05-19T10:29:41;22.00;99.90
9925;DHT22;5001;51.674;7.868;2023-05-19T10:32:15;22.30;99.90
9925;DHT22;5001;51.674;7.868;2023-05-19T10:39:50;23.20;99.90
9925;DHT22;5001;51.674;7.868;2023-05-19T10:42:34;23.00;99.90
9925;DHT22;5001;51.674;7.868;2023-05-19T10:45:15;23.70;99.90
9925;DHT22;5001;51.674;7.868;2023-05-19T10:47:43;25.20;99.90
9925;DHT22;5001;51.674;7.868;2023-05-19T10:50:11;24.30;99.90
9925;DHT22;5001;51.674;7.868;2023-05-19T10:52:39;23.40;99.90
9925;DHT22;5001;51.674;7.868;2023-05-19T10:55:07;23.80;99.90
9925;DHT22;5001;51.674;7.868;2023-05-19T10:57:34;25.20;99.90
9925;DHT22;5001;51.674;7.868;2023-05-19T11:00:05;25.40;99.90
9925;DHT22;5001;51.674;7.868;2023-05-19T11:02:51;25.10;99.90
9925;DHT22;5001;51.674;7.868;2023-05-19T11:05:27;24.70;99.90
9925;DHT22;5001;51.674;7.868;2023-05-19T11:07:57;24.90;99.90
9925;DHT22;5001;51.674;7.868;2023-05-19T11:10:34;24.60;99.90
9925;DHT22;5001;51.674;7.868;2023-05-19T11:13:03;22.90;99.90
9925;DHT22;5001;51.674;7.868;2023-05-19T11:15:35;23.80;99.90
9925;DHT22;5001;51.674;7.868;2023-05-19T11:18:05;24.50;99.90
9925;DHT22;5001;51.674;7.868;2023-05-19T11:20:32;24.40;99.90
9925;DHT22;5001;51.674;7.868;2023-05-19T11:23:14;24.40;99.90
9925;DHT22;5001;51.674;7.868;2023-05-19T11:25:46;23.70;99.90
9925;DHT22;5001;51.674;7.868;2023-05-19T11:28:23;23.00;99.90
9925;DHT22;5001;51.674;7.868;2023-05-19T11:30:55;23.80;99.90
9925;DHT22;5001;51.674;7.868;2023-05-19T11:33:24;25.30;99.90
9925;DHT22;5001;51.674;7.868;2023-05-19T11:35:56;25.80;99.90
9925;DHT22;5001;51.674;7.868;2023-05-19T11:38:25;24.90;99.90
9925;DHT22;5001;51.674;7.868;2023-05-19T11:40:55;23.90;99.90
9925;DHT22;5001;51.674;7.868;2023-05-19T11:43:23;24.20;99.90
9925;DHT22;5001;51.674;7.868;2023-05-19T11:45:51;24.00;99.90
9925;DHT22;5001;51.674;7.868;2023-05-19T11:48:22;24.20;99.90
9925;DHT22;5001;51.674;7.868;2023-05-19T11:50:50;24.40;99.90
9925;DHT22;5001;51.674;7.868;2023-05-19T11:53:18;24.70;99.90
9925;DHT22;5001;51.674;7.868;2023-05-19T11:55:46;23.70;99.90
9925;DHT22;5001;51.674;7.868;2023-05-19T11:58:15;23.70;99.90
9925;DHT22;5001;51.674;7.868;2023-05-19T12:00:44;23.40;99.90
9925;DHT22;5001;51.674;7.868;2023-05-19T12:03:14;24.40;99.90
9925;DHT22;5001;51.674;7.868;2023-05-19T12:05:47;24.60;99.90
9925;DHT22;5001;51.674;7.868;2023-05-19T12:08:16;24.90;99.90
9925;DHT22;5001;51.674;7.868;2023-05-19T12:10:47;24.30;99.90
9925;DHT22;5001;51.674;7.868;2023-05-19T12:13:18;23.40;99.90
9925;DHT22;5001;51.674;7.868;2023-05-19T12:15:46;22.80;99.90
9925;DHT22;5001;51.674;7.868;2023-05-19T12:18:14;23.20;99.90
9925;DHT22;5001;51.674;7.868;2023-05-19T12:20:41;23.40;99.90
9925;DHT22;5001;51.674;7.868;2023-05-19T12:23:08;23.80;99.90
9925;DHT22;5001;51.674;7.868;2023-05-19T12:25:36;22.90;99.90
9925;DHT22;5001;51.674;7.868;2023-05-19T12:28:04;22.30;99.90
9925;DHT22;5001;51.674;7.868;2023-05-19T12:30:31;22.10;99.90
9925;DHT22;5001;51.674;7.868;2023-05-19T12:33:01;21.50;99.90
9925;DHT22;5001;51.674;7.868;2023-05-19T12:35:30;21.80;99.90
9925;DHT22;5001;51.674;7.868;2023-05-19T12:38:12;22.50;99.90
9925;DHT22;5001;51.674;7.868;2023-05-19T12:40:40;21.90;99.90
9925;DHT22;5001;51.674;7.868;2023-05-19T12:43:17;21.40;99.90
9925;DHT22;5001;51.674;7.868;2023-05-19T12:45:44;21.00;99.90
9925;DHT22;5001;51.674;7.868;2023-05-19T12:48:12;21.20;99.90
9925;DHT22;5001;51.674;7.868;2023-05-19T12:50:42;21.10;99.90
9925;DHT22;5001;51.674;7.868;2023-05-19T12:53:11;21.50;99.90
9925;DHT22;5001;51.674;7.868;2023-05-19T12:55:39;21.70;99.90
9925;DHT22;5001;51.674;7.868;2023-05-19T12:58:09;21.50;99.90
9925;DHT22;5001;51.674;7.868;2023-05-19T13:00:44;21.00;99.90
9925;DHT22;5001;51.674;7.868;2023-05-19T13:03:14;21.10;99.90
9925;DHT22;5001;51.674;7.868;2023-05-19T13:05:45;20.90;99.90
9925;DHT22;5001;51.674;7.868;2023-05-19T13:08:14;20.90;99.90
9925;DHT22;5001;51.674;7.868;2023-05-19T13:10:44;21.10;99.90
9925;DHT22;5001;51.674;7.868;2023-05-19T13:13:11;21.10;99.90
9925;DHT22;5001;51.674;7.868;2023-05-19T13:15:44;20.90;99.90
9925;DHT22;5001;51.674;7.868;2023-05-19T13:18:12;20.80;99.90
9925;DHT22;5001;51.674;7.868;2023-05-19T13:20:41;21.10;99.90
9925;DHT22;5001;51.674;7.868;2023-05-19T13:23:09;21.30;99.90
9925;DHT22;5001;51.674;7.868;2023-05-19T13:25:37;21.70;99.90
9925;DHT22;5001;51.674;7.868;2023-05-19T13:28:04;21.70;99.90
9925;DHT22;5001;51.674;7.868;2023-05-19T13:30:35;21.50;99.90
9925;DHT22;5001;51.674;7.868;2023-05-19T13:33:04;21.20;99.90
9925;DHT22;5001;51.674;7.868;2023-05-19T13:35:32;21.10;99.90
9925;DHT22;5001;51.674;7.868;2023-05-19T13:38:05;20.70;99.90
9925;DHT22;5001;51.674;7.868;2023-05-19T13:40:33;20.70;99.90
9925;DHT22;5001;51.674;7.868;2023-05-19T13:43:02;20.90;99.90
9925;DHT22;5001;51.674;7.868;2023-05-19T13:45:29;21.10;99.90
9925;DHT22;5001;51.674;7.868;2023-05-19T13:47:56;20.30;99.90
9925;DHT22;5001;51.674;7.868;2023-05-19T13:50:23;20.20;99.90
9925;DHT22;5001;51.674;7.868;2023-05-19T13:52:50;20.30;99.90
9925;DHT22;5001;51.674;7.868;2023-05-19T13:55:18;20.50;99.90
9925;DHT22;5001;51.674;7.868;2023-05-19T13:57:45;20.60;99.90
9925;DHT22;5001;51.674;7.868;2023-05-19T14:00:12;20.80;99.90
9925;DHT22;5001;51.674;7.868;2023-05-19T14:02:39;20.80;99.90
9925;DHT22;5001;51.674;7.868;2023-05-19T14:05:07;21.00;99.90
9925;DHT22;5001;51.674;7.868;2023-05-19T14:07:34;20.80;99.90
9925;DHT22;5001;51.674;7.868;2023-05-19T14:10:02;20.50;99.90
9925;DHT22;5001;51.674;7.868;2023-05-19T14:12:31;20.70;99.90
9925;DHT22;5001;51.674;7.868;2023-05-19T14:15:13;21.10;99.90
9925;DHT22;5001;51.674;7.868;2023-05-19T14:17:40;21.20;99.90
9925;DHT22;5001;51.674;7.868;2023-05-19T14:20:08;20.90;99.90
9925;DHT22;5001;51.674;7.868;2023-05-19T14:22:35;20.50;99.90
9925;DHT22;5001;51.674;7.868;2023-05-19T14:25:02;20.50;99.90
9925;DHT22;5001;51.674;7.868;2023-05-19T14:27:29;20.50;99.90
9925;DHT22;5001;51.674;7.868;2023-05-19T14:29:56;20.60;99.90
9925;DHT22;5001;51.674;7.868;2023-05-19T14:32:23;20.90;99.90
9925;DHT22;5001;51.674;7.868;2023-05-19T14:34:52;20.90;99.90
9925;DHT22;5001;51.674;7.868;2023-05-19T14:37:19;21.00;99.90
9925;DHT22;5001;51.674;7.868;2023-05-19T14:39:46;21.00;99.90
9925;DHT22;5001;51.674;7.868;2023-05-19T14:42:14;21.10;99.90
9925;DHT22;5001;51.674;7.868;2023-05-19T14:44:41;20.70;99.90
9925;DHT22;5001;51.674;7.868;2023-05-19T14:47:08;20.80;99.90
9925;DHT22;5001;51.674;7.868;2023-05-19T14:49:37;20.90;99.90
9925;DHT22;5001;51.674;7.868;2023-05-19T14:52:04;21.20;99.90
9925;DHT22;5001;51.674;7.868;2023-05-19T14:54:31;20.60;99.90
9925;DHT22;5001;51.674;7.868;2023-05-19T14:56:58;20.40;99.90
9925;DHT22;5001;51.674;7.868;2023-05-19T14:59:25;20.30;99.90
9925;DHT22;5001;51.674;7.868;2023-05-19T15:01:53;20.30;99.90
9925;DHT22;5001;51.674;7.868;2023-05-19T15:04:20;20.20;99.90
9925;DHT22;5001;51.674;7.868;2023-05-19T15:06:47;20.50;99.90
9925;DHT22;5001;51.674;7.868;2023-05-19T15:09:34;20.70;99.90
9925;DHT22;5001;51.674;7.868;2023-05-19T15:12:02;20.60;99.90
9925;DHT22;5001;51.674;7.868;2023-05-19T15:14:29;20.70;99.90
9925;DHT22;5001;51.674;7.868;2023-05-19T15:16:57;20.60;99.90
9925;DHT22;5001;51.674;7.868;2023-05-19T15:19:24;20.50;99.90
9925;DHT22;5001;51.674;7.868;2023-05-19T15:21:52;20.50;99.90
9925;DHT22;5001;51.674;7.868;2023-05-19T15:24:19;20.30;99.90
9925;DHT22;5001;51.674;7.868;2023-05-19T15:26:46;19.80;99.90
9925;DHT22;5001;51.674;7.868;2023-05-19T15:29:13;19.90;99.90
9925;DHT22;5001;51.674;7.868;2023-05-19T15:31:40;19.90;99.90
9925;DHT22;5001;51.674;7.868;2023-05-19T15:34:07;19.90;99.90
9925;DHT22;5001;51.674;7.868;2023-05-19T15:36:34;19.90;99.90
9925;DHT22;5001;51.674;7.868;2023-05-19T15:39:02;20.30;99.90
9925;DHT22;5001;51.674;7.868;2023-05-19T15:41:29;20.50;99.90
9925;DHT22;5001;51.674;7.868;2023-05-19T15:43:56;20.50;99.90
9925;DHT22;5001;51.674;7.868;2023-05-19T15:46:26;21.00;99.90
9925;DHT22;5001;51.674;7.868;2023-05-19T15:48:53;20.60;99.90
9925;DHT22;5001;51.674;7.868;2023-05-19T15:51:21;20.20;99.90
9925;DHT22;5001;51.674;7.868;2023-05-19T15:53:48;20.40;99.90
9925;DHT22;5001;51.674;7.868;2023-05-19T15:56:15;19.90;99.90
9925;DHT22;5001;51.674;7.868;2023-05-19T15:58:42;19.70;99.90
9925;DHT22;5001;51.674;7.868;2023-05-19T16:01:10;19.70;99.90
9925;DHT22;5001;51.674;7.868;2023-05-19T16:03:37;19.90;99.90
9925;DHT22;5001;51.674;7.868;2023-05-19T16:06:04;20.00;99.90
9925;DHT22;5001;51.674;7.868;2023-05-19T16:08:31;20.00;99.90
9925;DHT22;5001;51.674;7.868;2023-05-19T16:10:58;19.90;99.90
9925;DHT22;5001;51.674;7.868;2023-05-19T16:13:26;20.10;99.90
9925;DHT22;5001;51.674;7.868;2023-05-19T16:15:53;20.20;99.90
9925;DHT22;5001;51.674;7.868;2023-05-19T16:18:20;20.10;99.90
9925;DHT22;5001;51.674;7.868;2023-05-19T16:20:47;19.70;99.90
9925;DHT22;5001;51.674;7.868;2023-05-19T16:23:14;19.90;99.90
9925;DHT22;5001;51.674;7.868;2023-05-19T16:25:41;19.90;99.90
9925;DHT22;5001;51.674;7.868;2023-05-19T16:28:08;19.90;99.90
9925;DHT22;5001;51.674;7.868;2023-05-19T16:30:35;19.70;99.90
9925;DHT22;5001;51.674;7.868;2023-05-19T16:33:03;19.50;99.90
9925;DHT22;5001;51.674;7.868;2023-05-19T16:35:31;19.50;99.90
9925;DHT22;5001;51.674;7.868;2023-05-19T16:37:58;19.60;99.90
9925;DHT22;5001;51.674;7.868;2023-05-19T16:40:25;19.70;99.90
9925;DHT22;5001;51.674;7.868;2023-05-19T16:42:56;19.70;99.90
9925;DHT22;5001;51.674;7.868;2023-05-19T16:45:23;19.70;99.90
9925;DHT22;5001;51.674;7.868;2023-05-19T16:47:52;19.90;99.90
9925;DHT22;5001;51.674;7.868;2023-05-19T16:50:19;19.90;99.90